createdAt,value
2022-09-05T00:00:19.640Z,95179.19
2022-09-05T00:03:18.687Z,95174.75
2022-09-05T00:06:08.594Z,95173.06
2022-09-05T00:08:52.406Z,95172.72
2022-09-05T00:11:40.551Z,95173.84
2022-09-05T00:14:36.715Z,95174.53
2022-09-05T00:18:06.292Z,95174.91
2022-09-05T00:24:25.766Z,95175.03
2022-09-05T00:24:27.137Z,95176.94
2022-09-05T00:26:45.218Z,95178.09
2022-09-05T00:31:05.386Z,95172.81
2022-09-05T00:32:41.248Z,95174.66
2022-09-05T00:35:46.849Z,95174.25
2022-09-05T00:38:15.607Z,95181.31
2022-09-05T00:40:50.020Z,95178.91
2022-09-05T00:43:22.589Z,95192.19
2022-09-05T00:46:28.055Z,95186.41
2022-09-05T00:49:28.156Z,95186.09
2022-09-05T00:52:07.084Z,95186.34
2022-09-05T00:54:52.597Z,95181.78
2022-09-05T00:57:40.109Z,95177.16
2022-09-05T01:00:17.245Z,95185.13
2022-09-05T01:03:10.277Z,95177.41
2022-09-05T01:05:56.165Z,95188.09
2022-09-05T01:08:48.764Z,95183.44
2022-09-05T01:11:36.394Z,95182.31
2022-09-05T01:14:32.498Z,95183.91
2022-09-05T01:17:25.775Z,95187.75
2022-09-05T01:20:28.334Z,95183.91
2022-09-05T01:23:27.486Z,95179.38
2022-09-05T01:26:26.310Z,95173.69
2022-09-05T01:29:18.595Z,95177.28
2022-09-05T01:32:09.159Z,95169.59
2022-09-05T01:34:54.407Z,95168.19
2022-09-05T01:37:38.752Z,95170.91
2022-09-05T01:40:38.023Z,95170.44
2022-09-05T01:43:31.646Z,95170.66
2022-09-05T01:46:11.749Z,95172.25
2022-09-05T01:49:01.650Z,95173.59
2022-09-05T01:51:47.051Z,95175.88
2022-09-05T01:54:32.398Z,95169.94
2022-09-05T01:57:19.750Z,95178.09
2022-09-05T01:59:55.765Z,95175.59
2022-09-05T02:02:41.166Z,95177.19
2022-09-05T02:05:48.755Z,95181.03
2022-09-05T02:08:24.392Z,95181.03
2022-09-05T02:11:02.285Z,95174.91
2022-09-05T02:13:49.367Z,95184.69
2022-09-05T02:16:24.252Z,95182.75
2022-09-05T02:18:58.038Z,95184.03
2022-09-05T02:21:56.542Z,95186.53
2022-09-05T02:24:50.501Z,95182.22
2022-09-05T02:28:03.791Z,95177.47
2022-09-05T02:30:25.614Z,95179.06
2022-09-05T02:33:24.902Z,95186.88
2022-09-05T02:36:10.459Z,95190.28
2022-09-05T02:41:51.334Z,95185.28
2022-09-05T02:45:06.888Z,95188.53
2022-09-05T02:45:12.505Z,95182.41
2022-09-05T02:47:46.461Z,95190.47
2022-09-05T02:53:12.200Z,95191.59
2022-09-05T02:57:40.980Z,95195.44
2022-09-05T02:57:42.483Z,95193.38
2022-09-05T02:59:16.206Z,95198.03
2022-09-05T03:01:56.517Z,95205.53
2022-09-05T03:04:43.618Z,95198.97
2022-09-05T03:07:25.369Z,95204.06
2022-09-05T03:10:45.683Z,95200.31
2022-09-05T03:13:54.269Z,95211.19
2022-09-05T03:16:54.751Z,95201.22
2022-09-05T03:19:46.168Z,95203.81
2022-09-05T03:22:39.834Z,95208.66
2022-09-05T03:25:35.968Z,95204.97
2022-09-05T03:28:23.726Z,95215.84
2022-09-05T03:31:15.974Z,95216.47
2022-09-05T03:34:08.690Z,95231.56
2022-09-05T03:36:54.810Z,95222.41
2022-09-05T03:48:28.420Z,95234.34
2022-09-05T03:57:05.748Z,95236.75
2022-09-05T03:57:18.917Z,95240.72
2022-09-05T03:57:42.597Z,95240.25
2022-09-05T04:00:30.613Z,95239.91
2022-09-05T04:08:10.478Z,95247.75
2022-09-05T04:08:15.725Z,95257.22
2022-09-05T04:09:22.568Z,95256.88
2022-09-05T04:12:01.288Z,95266.19
2022-09-05T04:14:41.196Z,95264.59
2022-09-05T04:17:20.261Z,95268.44
2022-09-05T04:19:50.714Z,95273.88
2022-09-05T04:22:25.390Z,95273.09
2022-09-05T04:25:12.507Z,95269.75
2022-09-05T04:28:01.963Z,95272.94
2022-09-05T04:30:41.020Z,95282.69
2022-09-05T04:33:17.099Z,95281.56
2022-09-05T04:36:08.835Z,95285.56
2022-09-05T04:38:45.768Z,95292.28
2022-09-05T04:41:20.076Z,95297.38
2022-09-05T04:44:15.555Z,95303.16
2022-09-05T04:46:48.935Z,95307.34
2022-09-05T04:49:24.614Z,95303.34
2022-09-05T04:52:30.862Z,95315.66
2022-09-05T04:55:07.415Z,95313.97
2022-09-05T04:57:55.033Z,95308.66
2022-09-05T05:06:00.371Z,95316.50
2022-09-05T05:06:17.346Z,95322.75
2022-09-05T05:06:44.083Z,95321.16
2022-09-05T05:09:26.115Z,95323.69
2022-09-05T05:17:55.705Z,95323.94
2022-09-05T05:18:07.955Z,95324.19
2022-09-05T05:18:39.668Z,95324.66
2022-09-05T05:21:03.050Z,95320.97
2022-09-05T05:23:55.821Z,95336.97
2022-09-05T05:26:32.881Z,95328.13
2022-09-05T05:29:04.719Z,95337.91
2022-09-05T05:31:33.855Z,95347.78
2022-09-05T05:34:07.528Z,95346.16
2022-09-05T05:37:09.805Z,95345.72
2022-09-05T05:39:43.285Z,95342.91
2022-09-05T05:42:21.227Z,95343.22
2022-09-05T05:44:58.465Z,95345.16
2022-09-05T05:47:44.867Z,95346.63
2022-09-05T05:50:30.496Z,95342.78
2022-09-05T05:53:31.978Z,95350.63
2022-09-05T05:56:30.709Z,95357.41
2022-09-05T05:59:33.498Z,95357.41
2022-09-05T06:02:24.810Z,95359.00
2022-09-05T06:05:11.941Z,95353.13
2022-09-05T06:08:47.674Z,95347.69
2022-09-05T06:14:55.185Z,95349.75
2022-09-05T06:14:57.753Z,95346.34
2022-09-05T06:17:28.342Z,95355.88
2022-09-05T06:22:04.829Z,95358.66
2022-09-05T06:23:38.804Z,95356.84
2022-09-05T06:29:37.997Z,95364.13
2022-09-05T06:32:26.421Z,95369.16
2022-09-05T06:35:11.593Z,95366.31
2022-09-05T06:37:57.057Z,95375.25
2022-09-05T06:41:00.367Z,95372.09
2022-09-05T06:43:37.426Z,95382.56
2022-09-05T06:46:54.936Z,95377.13
2022-09-05T06:49:37.380Z,95381.00
2022-09-05T06:52:36.581Z,95379.69
2022-09-05T06:55:22.051Z,95385.69
2022-09-05T06:58:07.209Z,95375.56
2022-09-05T07:00:53.599Z,95376.47
2022-09-05T07:03:39.726Z,95375.13
2022-09-05T07:06:19.588Z,95378.28
2022-09-05T07:08:54.282Z,95374.16
2022-09-05T07:11:23.986Z,95373.91
2022-09-05T07:14:22.986Z,95375.28
2022-09-05T07:17:10.165Z,95366.03
2022-09-05T07:19:51.882Z,95369.91
2022-09-05T07:22:47.305Z,95370.56
2022-09-05T07:25:21.606Z,95359.78
2022-09-05T07:28:28.751Z,95363.63
2022-09-05T07:30:49.783Z,95365.00
2022-09-05T07:33:21.592Z,95367.03
2022-09-05T07:35:50.617Z,95370.91
2022-09-05T07:38:52.147Z,95367.75
2022-09-05T07:41:30.149Z,95363.41
2022-09-05T07:44:10.342Z,95376.28
2022-09-05T07:46:41.672Z,95377.19
2022-09-05T07:49:23.489Z,95375.22
2022-09-05T07:56:54.954Z,95377.03
2022-09-05T07:57:06.381Z,95373.47
2022-09-05T07:57:51.743Z,95376.97
2022-09-05T08:00:25.497Z,95374.00
2022-09-05T08:02:55.079Z,95376.38
2022-09-05T08:05:34.549Z,95384.06
2022-09-05T08:08:05.658Z,95385.75
2022-09-05T08:11:25.598Z,95377.97
2022-09-05T08:13:46.526Z,95368.22
2022-09-05T08:16:15.965Z,95371.34
2022-09-05T08:18:55.237Z,95369.25
2022-09-05T08:21:42.163Z,95374.28
2022-09-05T08:24:21.574Z,95372.91
2022-09-05T08:26:51.664Z,95378.78
2022-09-05T08:29:51.287Z,95370.63
2022-09-05T08:32:40.477Z,95376.75
2022-09-05T08:35:13.891Z,95374.31
2022-09-05T08:37:43.204Z,95376.72
2022-09-05T08:40:35.762Z,95375.38
2022-09-05T08:43:44.341Z,95372.56
2022-09-05T08:46:37.303Z,95380.16
2022-09-05T08:49:32.160Z,95377.13
2022-09-05T08:52:24.593Z,95377.59
2022-09-05T08:55:13.795Z,95373.78
2022-09-05T08:58:06.700Z,95370.50
2022-09-05T09:00:37.758Z,95373.59
2022-09-05T09:03:27.015Z,95382.25
2022-09-05T09:06:18.674Z,95382.91
2022-09-05T09:09:10.760Z,95378.22
2022-09-05T09:11:40.821Z,95384.38
2022-09-05T09:14:30.953Z,95382.38
2022-09-05T09:17:02.820Z,95382.41
2022-09-05T09:19:46.889Z,95374.53
2022-09-05T09:22:34.409Z,95383.41
2022-09-05T09:25:15.556Z,95382.72
2022-09-05T09:28:35.007Z,95376.31
2022-09-05T09:30:57.365Z,95378.00
2022-09-05T09:33:31.113Z,95382.47
2022-09-05T09:36:07.832Z,95377.19
2022-09-05T09:39:11.757Z,95382.19
2022-09-05T09:42:32.202Z,95362.53
2022-09-05T09:45:22.894Z,95365.47
2022-09-05T09:48:13.172Z,95356.38
2022-09-05T09:51:00.837Z,95354.31
2022-09-05T09:53:37.615Z,95346.13
2022-09-05T09:56:40.107Z,95349.72
2022-09-05T09:59:36.097Z,95342.31
2022-09-05T10:04:55.556Z,95341.69
2022-09-05T10:10:36.226Z,95338.84
2022-09-05T10:11:09.668Z,95338.47
2022-09-05T10:15:03.764Z,95328.50
2022-09-05T10:21:15.523Z,95325.00
2022-09-05T10:26:57.362Z,95315.72
2022-09-05T10:29:45.119Z,95305.88
2022-09-05T10:35:18.358Z,95303.78
2022-09-05T10:35:29.570Z,95304.81
2022-09-05T10:38:04.407Z,95297.56
2022-09-05T10:41:06.674Z,95303.47
2022-09-05T10:43:31.446Z,95301.66
2022-09-05T10:46:46.757Z,95299.78
2022-09-05T10:49:10.448Z,95302.63
2022-09-05T10:51:58.302Z,95308.88
2022-09-05T10:54:53.289Z,95308.34
2022-09-05T10:58:01.122Z,95305.28
2022-09-05T11:02:21.457Z,95300.56
2022-09-05T11:03:55.736Z,95297.84
2022-09-05T11:06:26.391Z,95292.63
2022-09-05T11:09:05.926Z,95291.38
2022-09-05T11:11:40.193Z,95287.63
2022-09-05T11:14:26.838Z,95279.41
2022-09-05T11:16:56.682Z,95274.69
2022-09-05T11:19:36.922Z,95281.00
2022-09-05T11:22:22.179Z,95285.41
2022-09-05T11:24:56.062Z,95278.44
2022-09-05T11:27:35.181Z,95274.78
2022-09-05T11:30:06.203Z,95272.53
2022-09-05T11:37:48.692Z,95270.78
2022-09-05T11:39:58.356Z,95271.34
2022-09-05T11:40:04.531Z,95266.69
2022-09-05T11:42:15.632Z,95268.59
2022-09-05T11:45:17.829Z,95263.13
2022-09-05T11:48:13.989Z,95265.94
2022-09-05T11:50:54.866Z,95265.41
2022-09-05T11:53:44.483Z,95266.19
2022-09-05T11:56:42.676Z,95266.81
2022-09-05T11:59:47.039Z,95266.56
2022-09-05T12:02:53.380Z,95261.19
2022-09-05T12:05:48.666Z,95251.25
2022-09-05T12:08:43.461Z,95248.63
2022-09-05T12:11:26.156Z,95240.19
2022-09-05T12:14:21.262Z,95241.97
2022-09-05T12:19:57.123Z,95240.63
2022-09-05T12:22:31.587Z,95245.75
2022-09-05T12:29:27.109Z,95243.66
2022-09-05T12:33:47.942Z,95246.59
2022-09-05T12:36:04.557Z,95244.56
2022-09-05T12:40:43.206Z,95248.19
2022-09-05T12:41:01.010Z,95243.78
2022-09-05T12:44:40.285Z,95248.06
2022-09-05T12:46:14.976Z,95247.34
2022-09-05T12:49:07.139Z,95241.25
2022-09-05T12:51:45.918Z,95244.28
2022-09-05T12:54:32.821Z,95233.44
2022-09-05T13:02:01.483Z,95236.53
2022-09-05T13:02:59.122Z,95236.66
2022-09-05T13:03:14.679Z,95233.75
2022-09-05T13:05:47.747Z,95226.69
2022-09-05T13:08:21.299Z,95224.97
2022-09-05T13:13:39.604Z,95229.16
2022-09-05T13:14:58.749Z,95226.06
2022-09-05T13:16:45.661Z,95219.59
2022-09-05T13:19:22.065Z,95229.25
2022-09-05T13:21:52.797Z,95222.50
2022-09-05T13:24:27.938Z,95222.47
2022-09-05T13:27:24.417Z,95222.63
2022-09-05T13:31:12.361Z,95226.69
2022-09-05T13:37:55.951Z,95235.44
2022-09-05T13:38:13.700Z,95225.13
2022-09-05T13:39:01.002Z,95216.38
2022-09-05T13:41:30.552Z,95215.44
2022-09-05T13:44:26.651Z,95215.75
2022-09-05T13:47:29.098Z,95208.72
2022-09-05T13:50:17.613Z,95207.22
2022-09-05T13:52:52.866Z,95197.38
2022-09-05T13:55:24.013Z,95199.03
2022-09-05T13:58:07.457Z,95191.34
2022-09-05T14:00:54.450Z,95199.28
2022-09-05T14:03:47.930Z,95214.59
2022-09-05T14:06:48.322Z,95205.94
2022-09-05T14:09:38.028Z,95212.63
2022-09-05T14:12:17.771Z,95213.09
2022-09-05T14:15:14.162Z,95214.84
2022-09-05T14:18:00.030Z,95216.16
2022-09-05T14:20:49.807Z,95224.44
2022-09-05T14:23:17.974Z,95230.81
2022-09-05T14:25:52.417Z,95224.44
2022-09-05T14:28:33.866Z,95224.47
2022-09-05T14:34:07.090Z,95224.78
2022-09-05T14:37:43.110Z,95216.63
2022-09-05T14:37:51.402Z,95226.06
2022-09-05T14:40:36.741Z,95227.19
2022-09-05T14:43:30.963Z,95224.63
2022-09-05T14:46:24.253Z,95232.53
2022-09-05T14:49:01.560Z,95228.00
2022-09-05T14:51:30.582Z,95230.63
2022-09-05T14:54:02.057Z,95222.91
2022-09-05T14:58:49.225Z,95228.31
2022-09-05T15:02:54.233Z,95228.66
2022-09-05T15:02:58.393Z,95217.78
2022-09-05T15:05:51.566Z,95222.50
2022-09-05T15:11:23.973Z,95230.03
2022-09-05T15:12:17.100Z,95222.31
2022-09-05T15:14:06.602Z,95226.41
2022-09-05T15:16:43.438Z,95220.34
2022-09-05T15:19:30.409Z,95218.22
2022-09-05T15:21:57.180Z,95222.78
2022-09-05T15:24:25.102Z,95231.78
2022-09-05T15:26:53.800Z,95240.94
2022-09-05T15:29:28.141Z,95243.84
2022-09-05T15:32:16.777Z,95237.06
2022-09-05T15:34:43.603Z,95240.38
2022-09-05T15:37:25.166Z,95241.28
2022-09-05T15:40:02.472Z,95252.66
2022-09-05T15:42:34.151Z,95246.19
2022-09-05T15:45:10.754Z,95237.25
2022-09-05T15:47:39.557Z,95239.91
2022-09-05T15:50:21.768Z,95239.03
2022-09-05T15:52:55.036Z,95231.03
2022-09-05T15:55:26.531Z,95238.38
2022-09-05T15:58:00.939Z,95231.31
2022-09-05T16:00:40.074Z,95229.22
2022-09-05T16:06:36.334Z,95237.47
2022-09-05T16:10:34.252Z,95232.66
2022-09-05T16:10:42.219Z,95235.34
2022-09-05T16:12:14.029Z,95235.88
2022-09-05T16:15:19.828Z,95238.59
2022-09-05T16:23:17.780Z,95243.00
2022-09-05T16:23:28.090Z,95238.59
2022-09-05T16:23:42.037Z,95250.22
2022-09-05T16:26:24.949Z,95239.25
2022-09-05T16:29:01.281Z,95244.06
2022-09-05T16:32:02.321Z,95248.06
2022-09-05T16:34:50.244Z,95249.00
2022-09-05T16:37:20.997Z,95249.88
2022-09-05T16:39:50.662Z,95248.56
2022-09-05T16:42:47.256Z,95244.81
2022-09-05T16:45:34.774Z,95246.28
2022-09-05T16:48:16.967Z,95246.16
2022-09-05T16:50:50.853Z,95242.47
2022-09-05T16:53:39.543Z,95245.94
2022-09-05T16:56:17.668Z,95248.47
2022-09-05T16:59:04.989Z,95257.91
2022-09-05T17:02:05.881Z,95254.25
2022-09-05T17:05:04.266Z,95253.75
2022-09-05T17:07:42.226Z,95252.03
2022-09-05T17:10:16.113Z,95254.69
2022-09-05T17:12:43.071Z,95253.00
2022-09-05T17:15:13.882Z,95254.84
2022-09-05T17:18:22.412Z,95257.06
2022-09-05T17:20:54.239Z,95260.75
2022-09-05T17:29:18.929Z,95253.47
2022-09-05T17:29:23.470Z,95260.66
2022-09-05T17:32:46.321Z,95264.59
2022-09-05T17:35:27.246Z,95273.94
2022-09-05T17:38:20.271Z,95270.72
2022-09-05T17:40:55.485Z,95272.09
2022-09-05T17:43:33.363Z,95281.94
2022-09-05T17:46:18.737Z,95282.69
2022-09-05T17:49:18.449Z,95277.25
2022-09-05T17:52:07.556Z,95276.66
2022-09-05T17:54:34.608Z,95283.81
2022-09-05T17:57:21.996Z,95275.06
2022-09-05T17:59:51.688Z,95271.66
2022-09-05T18:02:28.555Z,95274.47
2022-09-05T18:04:56.166Z,95273.47
2022-09-05T18:07:46.476Z,95277.28
2022-09-05T18:10:27.612Z,95276.78
2022-09-05T18:13:13.839Z,95275.56
2022-09-05T18:16:01.575Z,95281.13
2022-09-05T18:19:28.748Z,95282.34
2022-09-05T18:21:25.005Z,95285.03
2022-09-05T18:24:01.788Z,95283.88
2022-09-05T18:26:29.869Z,95287.03
2022-09-05T18:29:05.973Z,95282.91
2022-09-05T18:31:59.311Z,95281.25
2022-09-05T18:34:44.057Z,95278.38
2022-09-05T18:37:29.429Z,95283.94
2022-09-05T18:40:12.391Z,95282.28
2022-09-05T18:42:57.397Z,95283.00
2022-09-05T18:45:38.289Z,95278.22
2022-09-05T18:48:42.194Z,95268.56
2022-09-05T18:51:15.801Z,95275.28
2022-09-05T18:53:47.379Z,95268.78
2022-09-05T18:57:03.041Z,95270.22
2022-09-05T18:59:34.439Z,95266.00
2022-09-05T19:02:05.112Z,95266.19
2022-09-05T19:04:42.429Z,95270.53
2022-09-05T19:07:21.514Z,95262.06
2022-09-05T19:10:09.514Z,95262.41
2022-09-05T19:13:19.642Z,95272.94
2022-09-05T19:15:59.912Z,95274.97
2022-09-05T19:19:01.067Z,95266.00
2022-09-05T19:21:33.120Z,95276.72
2022-09-05T19:24:03.495Z,95271.91
2022-09-05T19:26:34.785Z,95271.78
2022-09-05T19:36:49.316Z,95265.72
2022-09-05T19:36:50.766Z,95270.00
2022-09-05T19:37:09.041Z,95263.13
2022-09-05T19:37:44.567Z,95257.69
2022-09-05T19:47:31.468Z,95255.28
2022-09-05T19:47:43.030Z,95257.22
2022-09-05T19:47:49.054Z,95250.19
2022-09-05T19:49:06.515Z,95258.28
2022-09-05T19:51:33.839Z,95260.66
2022-09-05T19:54:05.289Z,95258.63
2022-09-05T19:56:52.733Z,95256.53
2022-09-05T19:59:22.639Z,95257.69
2022-09-05T20:01:52.027Z,95264.13
2022-09-05T20:04:19.769Z,95266.00
2022-09-05T20:06:50.326Z,95267.69
2022-09-05T20:09:24.564Z,95270.22
2022-09-05T20:11:53.420Z,95272.16
2022-09-05T20:14:24.602Z,95275.22
2022-09-05T20:16:52.453Z,95272.47
2022-09-05T20:19:23.064Z,95274.16
2022-09-05T20:21:56.998Z,95273.09
2022-09-05T20:24:24.628Z,95270.41
2022-09-05T20:26:52.189Z,95270.91
2022-09-05T20:29:55.187Z,95267.72
2022-09-05T20:32:26.676Z,95270.25
2022-09-05T20:36:31.307Z,95272.50
2022-09-05T20:43:09.689Z,95276.75
2022-09-05T20:43:23.235Z,95273.13
2022-09-05T20:44:07.447Z,95274.47
2022-09-05T20:52:47.642Z,95280.28
2022-09-05T20:54:08.497Z,95272.59
2022-09-05T20:54:23.199Z,95288.81
2022-09-05T20:55:39.754Z,95281.97
2022-09-05T20:58:15.276Z,95281.97
2022-09-05T21:01:15.348Z,95274.97
2022-09-05T21:03:38.227Z,95271.78
2022-09-05T21:06:33.805Z,95274.50
2022-09-05T21:09:33.225Z,95276.44
2022-09-05T21:12:09.190Z,95273.72
2022-09-05T21:14:42.030Z,95273.38
2022-09-05T21:17:15.551Z,95275.47
2022-09-05T21:19:53.160Z,95270.03
2022-09-05T21:22:28.520Z,95262.44
2022-09-05T21:25:08.422Z,95270.50
2022-09-05T21:27:35.340Z,95267.84
2022-09-05T21:30:21.830Z,95266.75
2022-09-05T21:32:52.172Z,95264.22
2022-09-05T21:35:35.437Z,95261.50
2022-09-05T21:38:02.670Z,95268.72
2022-09-05T21:40:29.638Z,95261.69
2022-09-05T21:46:34.410Z,95263.81
2022-09-05T21:47:48.552Z,95265.25
2022-09-05T21:48:34.681Z,95258.88
2022-09-05T21:51:09.035Z,95258.72
2022-09-05T21:56:13.689Z,95261.78
2022-09-05T21:59:25.143Z,95261.78
2022-09-05T21:59:46.964Z,95261.78
2022-09-05T22:02:17.073Z,95260.53
2022-09-05T22:04:44.344Z,95257.66
2022-09-05T22:07:16.459Z,95258.31
2022-09-05T22:09:58.494Z,95263.91
2022-09-05T22:12:31.310Z,95267.00
2022-09-05T22:15:08.694Z,95271.50
2022-09-05T22:17:46.845Z,95270.22
2022-09-05T22:20:16.066Z,95277.88
2022-09-05T22:22:43.055Z,95266.88
2022-09-05T22:25:15.294Z,95272.47
2022-09-05T22:27:44.418Z,95266.34
2022-09-05T22:30:12.208Z,95263.31
2022-09-05T22:32:39.344Z,95260.28
2022-09-05T22:35:27.741Z,95258.47
2022-09-05T22:38:00.092Z,95255.94
2022-09-05T22:40:28.019Z,95269.69
2022-09-05T22:42:55.886Z,95270.53
2022-09-05T22:45:22.837Z,95262.88
2022-09-05T22:47:49.618Z,95271.34
2022-09-05T22:50:16.551Z,95273.75
2022-09-05T22:52:43.422Z,95267.50
2022-09-05T22:55:10.404Z,95267.34
2022-09-05T22:57:40.297Z,95265.94
2022-09-05T23:00:08.231Z,95276.34
2022-09-05T23:02:35.404Z,95268.69
2022-09-05T23:05:03.204Z,95266.44
2022-09-05T23:07:30.169Z,95260.72
2022-09-05T23:09:57.019Z,95266.00
2022-09-05T23:12:23.922Z,95260.41
2022-09-05T23:14:50.853Z,95260.41
2022-09-05T23:17:17.698Z,95260.91
2022-09-05T23:19:44.534Z,95268.41
2022-09-05T23:22:11.496Z,95263.28
2022-09-05T23:24:38.310Z,95267.13
2022-09-05T23:27:05.196Z,95267.13
2022-09-05T23:29:32.107Z,95263.94
2022-09-05T23:31:58.921Z,95261.88
2022-09-05T23:34:25.818Z,95260.13
2022-09-05T23:36:52.617Z,95257.56
2022-09-05T23:39:19.470Z,95265.53
2022-09-05T23:41:46.421Z,95260.75
2022-09-05T23:44:13.313Z,95260.28
2022-09-05T23:46:40.584Z,95259.31
2022-09-05T23:49:07.539Z,95265.72
2022-09-05T23:51:34.432Z,95257.41
2022-09-05T23:54:01.349Z,95265.56
2022-09-05T23:56:28.240Z,95262.06
2022-09-05T23:58:55.135Z,95265.91
